This is the latest recevied weather packets stored in our database for station/object RK6MF-10. If no packets are shown the sender has not sent any weather packets the latest 10 day(s).
| Time | Temp. | Humidity | Pressure | Rain* | Wind** | Luminosity | Snow |
|---|---|---|---|---|---|---|---|
| 1777561893 | 12.22° C | 43% | 1015 hPa | - | - | - | - |
| 1777560993 | 12.22° C | 42% | 1014.9 hPa | - | - | - | - |
| 1777560093 | 12.78° C | 41% | 1015.1 hPa | - | - | - | - |
| 1777559193 | 12.78° C | 39% | 1015 hPa | - | - | - | - |
| 1777558291 | 13.33° C | 39% | 1015.1 hPa | - | - | - | - |
| 1777557391 | 15.56° C | 35% | 1014.9 hPa | - | - | - | - |
| 1777556491 | 16.67° C | 33% | 1015.1 hPa | - | - | - | - |
| 1777555591 | 17.78° C | 33% | 1015 hPa | - | - | - | - |
| 1777554691 | 18.33° C | 32% | 1014.9 hPa | - | - | - | - |
| 1777553791 | 17.78° C | 32% | 1014.9 hPa | - | - | - | - |
| 1777552891 | 18.33° C | 35% | 1015.1 hPa | - | - | - | - |
| 1777551991 | 18.89° C | 35% | 1015.1 hPa | - | - | - | - |
| 1777551091 | 19.44° C | 35% | 1015.1 hPa | - | - | - | - |
| 1777550191 | 18.33° C | 37% | 1015.2 hPa | - | - | - | - |
| 1777549290 | 17.78° C | 41% | 1015.2 hPa | - | - | - | - |
| 1777548390 | 19.44° C | 36% | 1015.4 hPa | - | - | - | - |
| 1777547490 | 16.67° C | 42% | 1015.5 hPa | - | - | - | - |
| 1777546590 | 17.22° C | 44% | 1015.9 hPa | - | - | - | - |
| 1777545690 | 16.11° C | 45% | 1015.9 hPa | - | - | - | - |
| 1777544790 | 20.56° C | 38% | 1016 hPa | - | - | - | - |
| 1777543890 | 18.33° C | 43% | 1015.9 hPa | - | - | - | - |
| 1777542989 | 18.33° C | 51% | 1015.9 hPa | - | - | - | - |
| 1777542092 | 15° C | 59% | 1016 hPa | - | - | - | - |
| 1777541192 | 12.78° C | 68% | 1016.1 hPa | - | - | - | - |
| 1777540292 | 13.33° C | 68% | 1016.3 hPa | - | - | - | - |
* Rain since midnight (hover to see other rain measurements)
** Current wind speed in m/s (hover to see current wind gust speed)